sensor_id;sensor_type;location;lat;lon;timestamp;temperature;humidity
60473;DHT22;46318;52.716;6.444;2023-03-12T00:00:51;0.30;99.90
60473;DHT22;46318;52.716;6.444;2023-03-12T00:03:17;0.30;99.90
60473;DHT22;46318;52.716;6.444;2023-03-12T00:05:43;0.30;99.90
60473;DHT22;46318;52.716;6.444;2023-03-12T00:08:10;0.30;99.90
60473;DHT22;46318;52.716;6.444;2023-03-12T00:10:40;0.30;99.90
60473;DHT22;46318;52.716;6.444;2023-03-12T00:13:07;0.30;99.90
60473;DHT22;46318;52.716;6.444;2023-03-12T00:15:37;0.20;99.90
60473;DHT22;46318;52.716;6.444;2023-03-12T00:18:03;0.20;99.90
60473;DHT22;46318;52.716;6.444;2023-03-12T00:20:29;0.20;99.90
60473;DHT22;46318;52.716;6.444;2023-03-12T00:22:55;0.20;99.90
60473;DHT22;46318;52.716;6.444;2023-03-12T00:25:21;0.20;99.90
60473;DHT22;46318;52.716;6.444;2023-03-12T00:27:47;0.20;99.90
60473;DHT22;46318;52.716;6.444;2023-03-12T00:30:13;0.20;99.90
60473;DHT22;46318;52.716;6.444;2023-03-12T00:32:39;0.20;99.90
60473;DHT22;46318;52.716;6.444;2023-03-12T00:35:06;0.20;99.90
60473;DHT22;46318;52.716;6.444;2023-03-12T00:37:32;0.20;99.90
60473;DHT22;46318;52.716;6.444;2023-03-12T00:39:59;0.10;99.90
60473;DHT22;46318;52.716;6.444;2023-03-12T00:42:26;0.10;99.90
60473;DHT22;46318;52.716;6.444;2023-03-12T00:44:52;0.10;99.90
60473;DHT22;46318;52.716;6.444;2023-03-12T00:47:18;0.10;99.90
60473;DHT22;46318;52.716;6.444;2023-03-12T00:49:44;0.10;99.90
60473;DHT22;46318;52.716;6.444;2023-03-12T00:52:10;0.10;99.90
60473;DHT22;46318;52.716;6.444;2023-03-12T00:54:36;0.10;99.90
60473;DHT22;46318;52.716;6.444;2023-03-12T00:57:02;0.10;99.90
60473;DHT22;46318;52.716;6.444;2023-03-12T00:59:28;0.10;99.90
60473;DHT22;46318;52.716;6.444;2023-03-12T01:01:54;0.10;99.90
60473;DHT22;46318;52.716;6.444;2023-03-12T01:04:20;0.10;99.90
60473;DHT22;46318;52.716;6.444;2023-03-12T01:06:46;0.10;99.90
60473;DHT22;46318;52.716;6.444;2023-03-12T01:09:11;0.10;99.90
60473;DHT22;46318;52.716;6.444;2023-03-12T01:11:38;0.10;99.90
60473;DHT22;46318;52.716;6.444;2023-03-12T01:14:05;0.10;99.90
60473;DHT22;46318;52.716;6.444;2023-03-12T01:16:32;0.10;99.90
60473;DHT22;46318;52.716;6.444;2023-03-12T01:18:59;0.10;99.90
60473;DHT22;46318;52.716;6.444;2023-03-12T01:21:26;0.10;99.90
60473;DHT22;46318;52.716;6.444;2023-03-12T01:23:53;0.10;99.90
60473;DHT22;46318;52.716;6.444;2023-03-12T01:26:20;0.10;99.90
60473;DHT22;46318;52.716;6.444;2023-03-12T01:28:46;0.10;99.90
60473;DHT22;46318;52.716;6.444;2023-03-12T01:31:15;0.10;99.90
60473;DHT22;46318;52.716;6.444;2023-03-12T01:33:43;0.10;99.90
60473;DHT22;46318;52.716;6.444;2023-03-12T01:36:17;0.10;99.90
60473;DHT22;46318;52.716;6.444;2023-03-12T01:38:45;0.20;99.90
60473;DHT22;46318;52.716;6.444;2023-03-12T01:41:11;0.20;99.90
60473;DHT22;46318;52.716;6.444;2023-03-12T01:43:38;0.20;99.90
60473;DHT22;46318;52.716;6.444;2023-03-12T01:46:29;0.20;99.90
60473;DHT22;46318;52.716;6.444;2023-03-12T01:49:19;0.20;99.90
60473;DHT22;46318;52.716;6.444;2023-03-12T01:51:54;0.20;99.90
60473;DHT22;46318;52.716;6.444;2023-03-12T01:54:44;0.20;99.90
60473;DHT22;46318;52.716;6.444;2023-03-12T01:57:37;0.20;99.90
60473;DHT22;46318;52.716;6.444;2023-03-12T02:00:11;0.20;99.90
60473;DHT22;46318;52.716;6.444;2023-03-12T02:02:45;0.20;99.90
60473;DHT22;46318;52.716;6.444;2023-03-12T02:05:26;0.20;99.90
60473;DHT22;46318;52.716;6.444;2023-03-12T02:07:55;0.20;99.90
60473;DHT22;46318;52.716;6.444;2023-03-12T02:10:22;0.20;99.90
60473;DHT22;46318;52.716;6.444;2023-03-12T02:12:48;0.20;99.90
60473;DHT22;46318;52.716;6.444;2023-03-12T02:15:14;0.20;99.90
60473;DHT22;46318;52.716;6.444;2023-03-12T02:17:40;0.20;99.90
60473;DHT22;46318;52.716;6.444;2023-03-12T02:20:31;0.20;99.90
60473;DHT22;46318;52.716;6.444;2023-03-12T02:23:20;0.20;99.90
60473;DHT22;46318;52.716;6.444;2023-03-12T02:25:52;0.20;99.90
60473;DHT22;46318;52.716;6.444;2023-03-12T02:28:20;0.20;99.90
60473;DHT22;46318;52.716;6.444;2023-03-12T02:30:50;0.20;99.90
60473;DHT22;46318;52.716;6.444;2023-03-12T02:33:17;0.30;99.90
60473;DHT22;46318;52.716;6.444;2023-03-12T02:35:45;0.30;99.90
60473;DHT22;46318;52.716;6.444;2023-03-12T02:38:35;0.20;99.90
60473;DHT22;46318;52.716;6.444;2023-03-12T02:41:50;0.30;99.90
60473;DHT22;46318;52.716;6.444;2023-03-12T02:44:23;0.30;99.90
60473;DHT22;46318;52.716;6.444;2023-03-12T02:46:53;0.30;99.90
60473;DHT22;46318;52.716;6.444;2023-03-12T02:49:21;0.30;99.90
60473;DHT22;46318;52.716;6.444;2023-03-12T02:51:48;0.30;99.90
60473;DHT22;46318;52.716;6.444;2023-03-12T02:54:17;0.30;99.90
60473;DHT22;46318;52.716;6.444;2023-03-12T02:56:43;0.30;99.90
60473;DHT22;46318;52.716;6.444;2023-03-12T02:59:10;0.30;99.90
60473;DHT22;46318;52.716;6.444;2023-03-12T03:01:37;0.30;99.90
60473;DHT22;46318;52.716;6.444;2023-03-12T03:04:04;0.30;99.90
60473;DHT22;46318;52.716;6.444;2023-03-12T03:06:30;0.30;99.90
60473;DHT22;46318;52.716;6.444;2023-03-12T03:08:57;0.30;99.90
60473;DHT22;46318;52.716;6.444;2023-03-12T03:11:23;0.30;99.90
60473;DHT22;46318;52.716;6.444;2023-03-12T03:13:50;0.30;99.90
60473;DHT22;46318;52.716;6.444;2023-03-12T03:16:16;0.30;99.90
60473;DHT22;46318;52.716;6.444;2023-03-12T03:18:42;0.40;99.90
60473;DHT22;46318;52.716;6.444;2023-03-12T03:21:09;0.30;99.90
60473;DHT22;46318;52.716;6.444;2023-03-12T03:23:35;0.40;99.90
60473;DHT22;46318;52.716;6.444;2023-03-12T03:26:02;0.40;99.90
60473;DHT22;46318;52.716;6.444;2023-03-12T03:28:29;0.40;99.90
60473;DHT22;46318;52.716;6.444;2023-03-12T03:30:56;0.40;99.90
60473;DHT22;46318;52.716;6.444;2023-03-12T03:33:25;0.40;99.90
60473;DHT22;46318;52.716;6.444;2023-03-12T03:35:51;0.40;99.90
60473;DHT22;46318;52.716;6.444;2023-03-12T03:38:16;0.40;99.90
60473;DHT22;46318;52.716;6.444;2023-03-12T03:40:42;0.40;99.90
60473;DHT22;46318;52.716;6.444;2023-03-12T03:43:08;0.40;99.90
60473;DHT22;46318;52.716;6.444;2023-03-12T03:45:34;0.40;99.90
60473;DHT22;46318;52.716;6.444;2023-03-12T03:48:00;0.40;99.90
60473;DHT22;46318;52.716;6.444;2023-03-12T03:50:26;0.40;99.90
60473;DHT22;46318;52.716;6.444;2023-03-12T03:52:52;0.40;99.90
60473;DHT22;46318;52.716;6.444;2023-03-12T03:55:18;0.40;99.90
60473;DHT22;46318;52.716;6.444;2023-03-12T03:57:43;0.40;99.90
60473;DHT22;46318;52.716;6.444;2023-03-12T04:00:10;0.50;99.90
60473;DHT22;46318;52.716;6.444;2023-03-12T04:02:38;0.40;99.90
60473;DHT22;46318;52.716;6.444;2023-03-12T04:05:04;0.50;99.90
60473;DHT22;46318;52.716;6.444;2023-03-12T04:07:30;0.50;99.90
60473;DHT22;46318;52.716;6.444;2023-03-12T04:09:56;0.50;99.90
60473;DHT22;46318;52.716;6.444;2023-03-12T04:12:22;0.50;99.90
60473;DHT22;46318;52.716;6.444;2023-03-12T04:14:51;0.50;99.90
60473;DHT22;46318;52.716;6.444;2023-03-12T04:17:18;0.50;99.90
60473;DHT22;46318;52.716;6.444;2023-03-12T04:19:44;0.50;99.90
60473;DHT22;46318;52.716;6.444;2023-03-12T04:22:10;0.50;99.90
60473;DHT22;46318;52.716;6.444;2023-03-12T04:24:36;0.50;99.90
60473;DHT22;46318;52.716;6.444;2023-03-12T04:27:02;0.50;99.90
60473;DHT22;46318;52.716;6.444;2023-03-12T04:29:28;0.60;99.90
60473;DHT22;46318;52.716;6.444;2023-03-12T04:31:54;0.60;99.90
60473;DHT22;46318;52.716;6.444;2023-03-12T04:34:20;0.60;99.90
60473;DHT22;46318;52.716;6.444;2023-03-12T04:36:46;0.60;99.90
60473;DHT22;46318;52.716;6.444;2023-03-12T04:39:15;0.60;99.90
60473;DHT22;46318;52.716;6.444;2023-03-12T04:41:42;0.60;99.90
60473;DHT22;46318;52.716;6.444;2023-03-12T04:44:08;0.60;99.90
60473;DHT22;46318;52.716;6.444;2023-03-12T04:46:34;0.60;99.90
60473;DHT22;46318;52.716;6.444;2023-03-12T04:49:00;0.60;99.90
60473;DHT22;46318;52.716;6.444;2023-03-12T04:51:27;0.70;99.90
60473;DHT22;46318;52.716;6.444;2023-03-12T04:53:54;0.70;99.90
60473;DHT22;46318;52.716;6.444;2023-03-12T04:56:21;0.70;99.90
60473;DHT22;46318;52.716;6.444;2023-03-12T04:58:46;0.70;99.90
60473;DHT22;46318;52.716;6.444;2023-03-12T05:01:25;0.70;99.90
60473;DHT22;46318;52.716;6.444;2023-03-12T05:03:55;0.70;99.90
60473;DHT22;46318;52.716;6.444;2023-03-12T05:06:23;0.70;99.90
60473;DHT22;46318;52.716;6.444;2023-03-12T05:08:50;0.70;99.90
60473;DHT22;46318;52.716;6.444;2023-03-12T05:11:16;0.80;99.90
60473;DHT22;46318;52.716;6.444;2023-03-12T05:13:43;0.80;99.90
60473;DHT22;46318;52.716;6.444;2023-03-12T05:16:09;0.80;99.90
60473;DHT22;46318;52.716;6.444;2023-03-12T05:18:36;0.80;99.90
60473;DHT22;46318;52.716;6.444;2023-03-12T05:21:08;0.80;99.90
60473;DHT22;46318;52.716;6.444;2023-03-12T05:23:37;0.80;99.90
60473;DHT22;46318;52.716;6.444;2023-03-12T05:26:14;0.80;99.90
60473;DHT22;46318;52.716;6.444;2023-03-12T05:28:41;0.80;99.90
60473;DHT22;46318;52.716;6.444;2023-03-12T05:31:09;0.80;99.90
60473;DHT22;46318;52.716;6.444;2023-03-12T05:33:35;0.80;99.90
60473;DHT22;46318;52.716;6.444;2023-03-12T05:36:01;0.80;99.90
60473;DHT22;46318;52.716;6.444;2023-03-12T05:38:27;0.90;99.90
60473;DHT22;46318;52.716;6.444;2023-03-12T05:40:55;0.90;99.90
60473;DHT22;46318;52.716;6.444;2023-03-12T05:43:22;0.90;99.90
60473;DHT22;46318;52.716;6.444;2023-03-12T05:45:48;0.90;99.90
60473;DHT22;46318;52.716;6.444;2023-03-12T05:48:14;0.90;99.90
60473;DHT22;46318;52.716;6.444;2023-03-12T05:50:40;0.90;99.90
60473;DHT22;46318;52.716;6.444;2023-03-12T05:53:07;0.90;99.90
60473;DHT22;46318;52.716;6.444;2023-03-12T05:55:34;0.90;99.90
60473;DHT22;46318;52.716;6.444;2023-03-12T05:58:02;0.90;99.90
60473;DHT22;46318;52.716;6.444;2023-03-12T06:00:29;0.90;99.90
60473;DHT22;46318;52.716;6.444;2023-03-12T06:02:56;0.90;99.90
60473;DHT22;46318;52.716;6.444;2023-03-12T06:05:22;0.90;99.90
60473;DHT22;46318;52.716;6.444;2023-03-12T06:07:48;0.90;99.90
60473;DHT22;46318;52.716;6.444;2023-03-12T06:10:14;0.90;99.90
60473;DHT22;46318;52.716;6.444;2023-03-12T06:12:40;0.90;99.90
60473;DHT22;46318;52.716;6.444;2023-03-12T06:15:06;0.90;99.90
60473;DHT22;46318;52.716;6.444;2023-03-12T06:17:32;1.00;99.90
60473;DHT22;46318;52.716;6.444;2023-03-12T06:19:58;1.00;99.90
60473;DHT22;46318;52.716;6.444;2023-03-12T06:22:24;1.00;99.90
60473;DHT22;46318;52.716;6.444;2023-03-12T06:24:50;1.00;99.90
60473;DHT22;46318;52.716;6.444;2023-03-12T06:27:16;1.00;99.90
60473;DHT22;46318;52.716;6.444;2023-03-12T06:29:43;1.00;99.90
60473;DHT22;46318;52.716;6.444;2023-03-12T06:32:11;1.00;99.90
60473;DHT22;46318;52.716;6.444;2023-03-12T06:34:37;1.00;99.90
60473;DHT22;46318;52.716;6.444;2023-03-12T06:37:03;1.00;99.90
60473;DHT22;46318;52.716;6.444;2023-03-12T06:39:29;1.00;99.90
60473;DHT22;46318;52.716;6.444;2023-03-12T06:41:55;1.00;99.90
60473;DHT22;46318;52.716;6.444;2023-03-12T06:44:21;1.10;99.90
60473;DHT22;46318;52.716;6.444;2023-03-12T06:46:47;1.10;99.90
60473;DHT22;46318;52.716;6.444;2023-03-12T06:49:13;1.10;99.90
60473;DHT22;46318;52.716;6.444;2023-03-12T06:51:39;1.10;99.90
60473;DHT22;46318;52.716;6.444;2023-03-12T06:54:05;1.10;99.90
60473;DHT22;46318;52.716;6.444;2023-03-12T06:56:32;1.10;99.90
60473;DHT22;46318;52.716;6.444;2023-03-12T06:58:57;1.10;99.90
60473;DHT22;46318;52.716;6.444;2023-03-12T07:01:23;1.10;99.90
60473;DHT22;46318;52.716;6.444;2023-03-12T07:03:49;1.20;99.90
60473;DHT22;46318;52.716;6.444;2023-03-12T07:06:20;1.20;99.90
60473;DHT22;46318;52.716;6.444;2023-03-12T07:08:47;1.20;99.90
60473;DHT22;46318;52.716;6.444;2023-03-12T07:11:13;1.20;99.90
60473;DHT22;46318;52.716;6.444;2023-03-12T07:13:40;1.20;99.90
60473;DHT22;46318;52.716;6.444;2023-03-12T07:16:07;1.20;99.90
60473;DHT22;46318;52.716;6.444;2023-03-12T07:18:33;1.20;99.90
60473;DHT22;46318;52.716;6.444;2023-03-12T07:20:59;1.20;99.90
60473;DHT22;46318;52.716;6.444;2023-03-12T07:23:25;1.20;99.90
60473;DHT22;46318;52.716;6.444;2023-03-12T07:25:52;1.20;99.90
60473;DHT22;46318;52.716;6.444;2023-03-12T07:28:18;1.20;99.90
60473;DHT22;46318;52.716;6.444;2023-03-12T07:30:45;1.20;99.90
60473;DHT22;46318;52.716;6.444;2023-03-12T07:33:20;1.20;99.90
60473;DHT22;46318;52.716;6.444;2023-03-12T07:35:47;1.20;99.90
60473;DHT22;46318;52.716;6.444;2023-03-12T07:38:13;1.20;99.90
60473;DHT22;46318;52.716;6.444;2023-03-12T07:40:39;1.20;99.90
60473;DHT22;46318;52.716;6.444;2023-03-12T07:43:05;1.20;99.90
60473;DHT22;46318;52.716;6.444;2023-03-12T07:45:36;1.20;99.90
60473;DHT22;46318;52.716;6.444;2023-03-12T07:48:04;1.20;99.90
60473;DHT22;46318;52.716;6.444;2023-03-12T07:50:30;1.20;99.90
60473;DHT22;46318;52.716;6.444;2023-03-12T07:52:56;1.20;99.90
60473;DHT22;46318;52.716;6.444;2023-03-12T07:55:21;1.20;99.90
60473;DHT22;46318;52.716;6.444;2023-03-12T07:57:47;1.20;99.90
60473;DHT22;46318;52.716;6.444;2023-03-12T08:00:13;1.20;99.90
60473;DHT22;46318;52.716;6.444;2023-03-12T08:02:39;1.20;99.90
60473;DHT22;46318;52.716;6.444;2023-03-12T08:05:06;1.20;99.90
60473;DHT22;46318;52.716;6.444;2023-03-12T08:07:32;1.20;99.90
60473;DHT22;46318;52.716;6.444;2023-03-12T08:10:00;1.20;99.90
60473;DHT22;46318;52.716;6.444;2023-03-12T08:12:27;1.20;99.90
60473;DHT22;46318;52.716;6.444;2023-03-12T08:14:53;1.30;99.90
60473;DHT22;46318;52.716;6.444;2023-03-12T08:17:19;1.30;99.90
60473;DHT22;46318;52.716;6.444;2023-03-12T08:19:45;1.30;99.90
60473;DHT22;46318;52.716;6.444;2023-03-12T08:22:11;1.30;99.90
60473;DHT22;46318;52.716;6.444;2023-03-12T08:24:36;1.30;99.90
60473;DHT22;46318;52.716;6.444;2023-03-12T08:27:02;1.30;99.90
60473;DHT22;46318;52.716;6.444;2023-03-12T08:29:28;1.40;99.90
60473;DHT22;46318;52.716;6.444;2023-03-12T08:31:54;1.40;99.90
60473;DHT22;46318;52.716;6.444;2023-03-12T08:34:20;1.30;99.90
60473;DHT22;46318;52.716;6.444;2023-03-12T08:36:46;1.40;99.90
60473;DHT22;46318;52.716;6.444;2023-03-12T08:39:12;1.40;99.90
60473;DHT22;46318;52.716;6.444;2023-03-12T08:41:38;1.40;99.90
60473;DHT22;46318;52.716;6.444;2023-03-12T08:44:04;1.40;99.90
60473;DHT22;46318;52.716;6.444;2023-03-12T08:46:29;1.50;99.90
60473;DHT22;46318;52.716;6.444;2023-03-12T08:48:55;1.50;99.90
60473;DHT22;46318;52.716;6.444;2023-03-12T08:51:21;1.50;99.90
60473;DHT22;46318;52.716;6.444;2023-03-12T08:53:47;1.50;99.90
60473;DHT22;46318;52.716;6.444;2023-03-12T08:56:13;1.50;99.90
60473;DHT22;46318;52.716;6.444;2023-03-12T08:58:39;1.60;99.90
60473;DHT22;46318;52.716;6.444;2023-03-12T09:01:12;1.60;99.90
60473;DHT22;46318;52.716;6.444;2023-03-12T09:03:38;1.70;99.90
60473;DHT22;46318;52.716;6.444;2023-03-12T09:06:12;1.70;99.90
60473;DHT22;46318;52.716;6.444;2023-03-12T09:08:42;1.70;99.90
60473;DHT22;46318;52.716;6.444;2023-03-12T09:11:10;1.70;99.90
60473;DHT22;46318;52.716;6.444;2023-03-12T09:13:37;1.70;99.90
60473;DHT22;46318;52.716;6.444;2023-03-12T09:16:03;1.80;99.90
60473;DHT22;46318;52.716;6.444;2023-03-12T09:18:30;1.70;99.90
60473;DHT22;46318;52.716;6.444;2023-03-12T09:20:56;1.80;99.90
60473;DHT22;46318;52.716;6.444;2023-03-12T09:23:23;1.80;99.90
60473;DHT22;46318;52.716;6.444;2023-03-12T09:25:50;1.80;99.90
60473;DHT22;46318;52.716;6.444;2023-03-12T09:28:17;1.80;99.90
60473;DHT22;46318;52.716;6.444;2023-03-12T09:30:43;1.80;99.90
60473;DHT22;46318;52.716;6.444;2023-03-12T09:33:10;1.90;99.90
60473;DHT22;46318;52.716;6.444;2023-03-12T09:35:36;1.90;99.90
60473;DHT22;46318;52.716;6.444;2023-03-12T09:38:03;1.90;99.90
60473;DHT22;46318;52.716;6.444;2023-03-12T09:40:31;1.90;99.90
60473;DHT22;46318;52.716;6.444;2023-03-12T09:43:03;2.00;99.90
60473;DHT22;46318;52.716;6.444;2023-03-12T09:45:42;2.00;99.90
60473;DHT22;46318;52.716;6.444;2023-03-12T09:48:18;2.00;99.90
60473;DHT22;46318;52.716;6.444;2023-03-12T09:50:49;2.10;99.90
60473;DHT22;46318;52.716;6.444;2023-03-12T09:53:31;2.10;99.90
60473;DHT22;46318;52.716;6.444;2023-03-12T09:56:02;2.10;99.90
60473;DHT22;46318;52.716;6.444;2023-03-12T09:58:37;2.10;99.90
60473;DHT22;46318;52.716;6.444;2023-03-12T10:06:34;2.20;99.90
60473;DHT22;46318;52.716;6.444;2023-03-12T10:10:05;2.30;99.90
60473;DHT22;46318;52.716;6.444;2023-03-12T10:18:10;2.40;99.90
60473;DHT22;46318;52.716;6.444;2023-03-12T10:26:39;2.50;99.90
60473;DHT22;46318;52.716;6.444;2023-03-12T10:29:29;2.60;99.90
60473;DHT22;46318;52.716;6.444;2023-03-12T10:34:56;2.70;99.90
60473;DHT22;46318;52.716;6.444;2023-03-12T10:37:51;2.70;99.90
60473;DHT22;46318;52.716;6.444;2023-03-12T10:40:22;2.80;99.90
60473;DHT22;46318;52.716;6.444;2023-03-12T10:42:50;2.80;99.90
60473;DHT22;46318;52.716;6.444;2023-03-12T10:48:31;2.90;99.90
60473;DHT22;46318;52.716;6.444;2023-03-12T10:51:09;3.00;99.90
60473;DHT22;46318;52.716;6.444;2023-03-12T10:53:41;3.00;99.90
60473;DHT22;46318;52.716;6.444;2023-03-12T10:56:19;3.10;99.90
60473;DHT22;46318;52.716;6.444;2023-03-12T10:58:51;3.10;99.90
60473;DHT22;46318;52.716;6.444;2023-03-12T11:01:24;3.20;99.90
60473;DHT22;46318;52.716;6.444;2023-03-12T11:04:06;3.20;99.90
60473;DHT22;46318;52.716;6.444;2023-03-12T11:09:37;3.30;99.90
60473;DHT22;46318;52.716;6.444;2023-03-12T11:12:22;3.40;99.90
60473;DHT22;46318;52.716;6.444;2023-03-12T11:14:49;3.40;99.90
60473;DHT22;46318;52.716;6.444;2023-03-12T11:17:41;3.40;99.90
60473;DHT22;46318;52.716;6.444;2023-03-12T11:20:26;3.50;99.90
60473;DHT22;46318;52.716;6.444;2023-03-12T11:22:53;3.50;99.90
60473;DHT22;46318;52.716;6.444;2023-03-12T11:25:28;3.50;99.90
60473;DHT22;46318;52.716;6.444;2023-03-12T11:28:00;3.60;99.90
60473;DHT22;46318;52.716;6.444;2023-03-12T11:30:40;3.60;99.90
60473;DHT22;46318;52.716;6.444;2023-03-12T11:33:08;3.70;99.90
60473;DHT22;46318;52.716;6.444;2023-03-12T11:35:40;3.70;99.90
60473;DHT22;46318;52.716;6.444;2023-03-12T11:38:20;3.80;99.90
60473;DHT22;46318;52.716;6.444;2023-03-12T11:41:27;3.80;99.90
60473;DHT22;46318;52.716;6.444;2023-03-12T11:50:23;4.00;99.90
60473;DHT22;46318;52.716;6.444;2023-03-12T12:01:21;4.30;99.90
60473;DHT22;46318;52.716;6.444;2023-03-12T12:25:15;4.80;99.90
60473;DHT22;46318;52.716;6.444;2023-03-12T12:28:03;4.90;99.90
60473;DHT22;46318;52.716;6.444;2023-03-12T12:41:15;5.30;99.90
60473;DHT22;46318;52.716;6.444;2023-03-12T12:43:49;5.40;99.90
60473;DHT22;46318;52.716;6.444;2023-03-12T12:46:33;5.50;99.90
60473;DHT22;46318;52.716;6.444;2023-03-12T12:51:38;5.70;99.90
60473;DHT22;46318;52.716;6.444;2023-03-12T12:54:30;5.80;99.90
60473;DHT22;46318;52.716;6.444;2023-03-12T12:57:25;5.90;99.90
60473;DHT22;46318;52.716;6.444;2023-03-12T13:03:30;6.10;99.90
60473;DHT22;46318;52.716;6.444;2023-03-12T13:06:02;6.10;99.90
60473;DHT22;46318;52.716;6.444;2023-03-12T13:13:42;6.30;99.90
60473;DHT22;46318;52.716;6.444;2023-03-12T13:16:32;6.40;99.90
60473;DHT22;46318;52.716;6.444;2023-03-12T13:21:39;6.50;99.90
60473;DHT22;46318;52.716;6.444;2023-03-12T13:24:49;6.60;99.90
60473;DHT22;46318;52.716;6.444;2023-03-12T13:27:24;6.70;99.90
60473;DHT22;46318;52.716;6.444;2023-03-12T13:29:58;6.70;99.90
60473;DHT22;46318;52.716;6.444;2023-03-12T13:48:17;7.10;99.90
60473;DHT22;46318;52.716;6.444;2023-03-12T13:50:57;7.20;99.90
60473;DHT22;46318;52.716;6.444;2023-03-12T13:53:33;7.20;99.90
60473;DHT22;46318;52.716;6.444;2023-03-12T13:56:13;7.20;99.90
60473;DHT22;46318;52.716;6.444;2023-03-12T13:58:53;7.30;99.90
60473;DHT22;46318;52.716;6.444;2023-03-12T14:01:26;7.30;99.90
60473;DHT22;46318;52.716;6.444;2023-03-12T14:04:04;7.30;99.90
60473;DHT22;46318;52.716;6.444;2023-03-12T14:18:11;7.50;99.90
60473;DHT22;46318;52.716;6.444;2023-03-12T14:20:59;7.60;99.90
60473;DHT22;46318;52.716;6.444;2023-03-12T14:23:35;7.60;99.90
60473;DHT22;46318;52.716;6.444;2023-03-12T14:26:04;7.60;99.90
60473;DHT22;46318;52.716;6.444;2023-03-12T14:28:36;7.70;99.90
60473;DHT22;46318;52.716;6.444;2023-03-12T14:31:06;7.70;99.90
60473;DHT22;46318;52.716;6.444;2023-03-12T14:34:11;7.70;99.90
60473;DHT22;46318;52.716;6.444;2023-03-12T14:40:07;7.80;99.90
60473;DHT22;46318;52.716;6.444;2023-03-12T14:42:45;7.80;99.90
60473;DHT22;46318;52.716;6.444;2023-03-12T14:45:21;7.80;99.90
60473;DHT22;46318;52.716;6.444;2023-03-12T14:47:56;7.80;99.90
60473;DHT22;46318;52.716;6.444;2023-03-12T14:50:27;7.80;99.90
60473;DHT22;46318;52.716;6.444;2023-03-12T14:53:16;7.90;99.90
60473;DHT22;46318;52.716;6.444;2023-03-12T14:55:57;7.90;99.90
60473;DHT22;46318;52.716;6.444;2023-03-12T14:58:49;8.00;99.90
60473;DHT22;46318;52.716;6.444;2023-03-12T15:01:28;8.00;99.90
60473;DHT22;46318;52.716;6.444;2023-03-12T15:04:06;8.00;99.90
60473;DHT22;46318;52.716;6.444;2023-03-12T15:06:46;8.00;99.90
60473;DHT22;46318;52.716;6.444;2023-03-12T15:09:23;8.10;99.90
60473;DHT22;46318;52.716;6.444;2023-03-12T15:12:01;8.10;99.90
60473;DHT22;46318;52.716;6.444;2023-03-12T15:14:32;8.10;99.90
60473;DHT22;46318;52.716;6.444;2023-03-12T15:16:59;8.10;99.90
60473;DHT22;46318;52.716;6.444;2023-03-12T15:19:31;8.10;99.90
60473;DHT22;46318;52.716;6.444;2023-03-12T15:22:00;8.20;99.90
60473;DHT22;46318;52.716;6.444;2023-03-12T15:24:28;8.20;99.90
60473;DHT22;46318;52.716;6.444;2023-03-12T15:29:49;8.20;99.90
60473;DHT22;46318;52.716;6.444;2023-03-12T15:32:17;8.20;99.90
60473;DHT22;46318;52.716;6.444;2023-03-12T15:34:53;8.30;99.90
60473;DHT22;46318;52.716;6.444;2023-03-12T15:37:33;8.30;99.90
60473;DHT22;46318;52.716;6.444;2023-03-12T15:40:29;8.30;99.90
60473;DHT22;46318;52.716;6.444;2023-03-12T15:42:56;8.30;99.90
60473;DHT22;46318;52.716;6.444;2023-03-12T15:45:37;8.40;99.90
60473;DHT22;46318;52.716;6.444;2023-03-12T15:50:56;8.40;99.90
60473;DHT22;46318;52.716;6.444;2023-03-12T15:53:29;8.40;99.90
60473;DHT22;46318;52.716;6.444;2023-03-12T15:56:22;8.50;99.90
60473;DHT22;46318;52.716;6.444;2023-03-12T15:59:19;8.50;99.90
60473;DHT22;46318;52.716;6.444;2023-03-12T16:01:55;8.50;99.90
60473;DHT22;46318;52.716;6.444;2023-03-12T16:04:22;8.50;99.90
60473;DHT22;46318;52.716;6.444;2023-03-12T16:06:49;8.50;99.90
60473;DHT22;46318;52.716;6.444;2023-03-12T16:09:25;8.50;99.90
60473;DHT22;46318;52.716;6.444;2023-03-12T16:11:52;8.50;99.90
60473;DHT22;46318;52.716;6.444;2023-03-12T16:14:30;8.50;99.90
60473;DHT22;46318;52.716;6.444;2023-03-12T16:16:59;8.50;99.90
60473;DHT22;46318;52.716;6.444;2023-03-12T16:19:28;8.60;99.90
60473;DHT22;46318;52.716;6.444;2023-03-12T16:21:54;8.60;99.90
60473;DHT22;46318;52.716;6.444;2023-03-12T16:24:20;8.60;99.90
60473;DHT22;46318;52.716;6.444;2023-03-12T16:29:35;8.60;99.90
60473;DHT22;46318;52.716;6.444;2023-03-12T16:32:10;8.60;99.90
60473;DHT22;46318;52.716;6.444;2023-03-12T16:34:37;8.60;99.90
60473;DHT22;46318;52.716;6.444;2023-03-12T16:37:03;8.60;99.90
60473;DHT22;46318;52.716;6.444;2023-03-12T16:39:29;8.60;99.90
60473;DHT22;46318;52.716;6.444;2023-03-12T16:41:59;8.60;99.90
60473;DHT22;46318;52.716;6.444;2023-03-12T16:44:28;8.60;99.90
60473;DHT22;46318;52.716;6.444;2023-03-12T16:46:56;8.60;99.90
60473;DHT22;46318;52.716;6.444;2023-03-12T16:49:22;8.60;99.90
60473;DHT22;46318;52.716;6.444;2023-03-12T16:51:48;8.60;99.90
60473;DHT22;46318;52.716;6.444;2023-03-12T16:54:14;8.60;99.90
60473;DHT22;46318;52.716;6.444;2023-03-12T16:56:46;8.60;99.90
60473;DHT22;46318;52.716;6.444;2023-03-12T16:59:33;8.60;99.90
60473;DHT22;46318;52.716;6.444;2023-03-12T17:02:07;8.60;99.90
60473;DHT22;46318;52.716;6.444;2023-03-12T17:04:39;8.60;99.90
60473;DHT22;46318;52.716;6.444;2023-03-12T17:07:05;8.60;99.90
60473;DHT22;46318;52.716;6.444;2023-03-12T17:09:30;8.60;99.90
60473;DHT22;46318;52.716;6.444;2023-03-12T17:11:57;8.60;99.90
60473;DHT22;46318;52.716;6.444;2023-03-12T17:14:23;8.60;99.90
60473;DHT22;46318;52.716;6.444;2023-03-12T17:16:53;8.60;99.90
60473;DHT22;46318;52.716;6.444;2023-03-12T17:19:19;8.50;99.90
60473;DHT22;46318;52.716;6.444;2023-03-12T17:21:46;8.60;99.90
60473;DHT22;46318;52.716;6.444;2023-03-12T17:24:13;8.50;99.90
60473;DHT22;46318;52.716;6.444;2023-03-12T17:26:39;8.50;99.90
60473;DHT22;46318;52.716;6.444;2023-03-12T17:29:06;8.50;99.90
60473;DHT22;46318;52.716;6.444;2023-03-12T17:31:32;8.50;99.90
60473;DHT22;46318;52.716;6.444;2023-03-12T17:33:59;8.50;99.90
60473;DHT22;46318;52.716;6.444;2023-03-12T17:36:28;8.40;99.90
60473;DHT22;46318;52.716;6.444;2023-03-12T17:38:54;8.40;99.90
60473;DHT22;46318;52.716;6.444;2023-03-12T17:41:21;8.40;99.90
60473;DHT22;46318;52.716;6.444;2023-03-12T17:43:47;8.40;99.90
60473;DHT22;46318;52.716;6.444;2023-03-12T17:46:13;8.40;99.90
60473;DHT22;46318;52.716;6.444;2023-03-12T17:48:39;8.40;99.90
60473;DHT22;46318;52.716;6.444;2023-03-12T17:51:06;8.40;99.90
60473;DHT22;46318;52.716;6.444;2023-03-12T17:53:35;8.40;99.90
60473;DHT22;46318;52.716;6.444;2023-03-12T17:56:04;8.40;99.90
60473;DHT22;46318;52.716;6.444;2023-03-12T17:58:31;8.40;99.90
60473;DHT22;46318;52.716;6.444;2023-03-12T18:00:58;8.40;99.90
60473;DHT22;46318;52.716;6.444;2023-03-12T18:03:24;8.30;99.90
60473;DHT22;46318;52.716;6.444;2023-03-12T18:05:50;8.30;99.90
60473;DHT22;46318;52.716;6.444;2023-03-12T18:08:16;8.30;99.90
60473;DHT22;46318;52.716;6.444;2023-03-12T18:10:42;8.30;99.90